Garceno, Texas
Current Conditions -  °F | °C
As of 1:35 AM on Wednesday 22 Oct 2014 (Local Time) from KEBG Reporting Station
Clear Clear  
Wind Chill: 74°   Ceiling: Unl
Heat Index: 74°   Visibility: 10mi
Dew Point: 70°   Wind: 3mph
Humidity: 90%   Direction: 30°NNE
Pressure: 29.96"   Gusts: NA
Location:  26.5735°N, 98.695°W
Report Text: KEBG 220635Z AUTO 03003KT 10SM CLR 23/21 A2996 RMK AO2 T02310213
Loading
Personal Weather Stations






























Interactive Weather Map
Tropical Storm Tracking
New forecast layout! Learn more

10-Day Weather Forecast

Advertisements
Track Severe Weather on mobile